sensor_id;sensor_type;location;lat;lon;timestamp;temperature;humidity
23748;DHT22;12054;53.662;10.126;2023-03-20T00:02:06;10.60;99.90
23748;DHT22;12054;53.662;10.126;2023-03-20T00:04:32;10.60;99.90
23748;DHT22;12054;53.662;10.126;2023-03-20T00:06:57;10.60;99.90
23748;DHT22;12054;53.662;10.126;2023-03-20T00:09:23;10.60;99.90
23748;DHT22;12054;53.662;10.126;2023-03-20T00:11:52;10.60;99.90
23748;DHT22;12054;53.662;10.126;2023-03-20T00:14:20;10.50;99.90
23748;DHT22;12054;53.662;10.126;2023-03-20T00:16:48;10.50;99.90
23748;DHT22;12054;53.662;10.126;2023-03-20T00:19:16;10.50;99.90
23748;DHT22;12054;53.662;10.126;2023-03-20T00:21:43;10.50;99.90
23748;DHT22;12054;53.662;10.126;2023-03-20T00:24:11;10.50;99.90
23748;DHT22;12054;53.662;10.126;2023-03-20T00:26:37;10.50;99.90
23748;DHT22;12054;53.662;10.126;2023-03-20T00:29:04;10.60;99.90
23748;DHT22;12054;53.662;10.126;2023-03-20T00:31:33;10.50;99.90
23748;DHT22;12054;53.662;10.126;2023-03-20T00:34:01;10.50;99.90
23748;DHT22;12054;53.662;10.126;2023-03-20T00:36:28;10.50;99.90
23748;DHT22;12054;53.662;10.126;2023-03-20T00:38:54;10.50;99.90
23748;DHT22;12054;53.662;10.126;2023-03-20T00:41:30;10.50;99.90
23748;DHT22;12054;53.662;10.126;2023-03-20T00:46:46;10.50;99.90
23748;DHT22;12054;53.662;10.126;2023-03-20T00:49:13;10.40;99.90
23748;DHT22;12054;53.662;10.126;2023-03-20T00:51:39;10.40;99.90
23748;DHT22;12054;53.662;10.126;2023-03-20T00:54:11;10.40;99.90
23748;DHT22;12054;53.662;10.126;2023-03-20T00:56:43;10.40;99.90
23748;DHT22;12054;53.662;10.126;2023-03-20T00:59:16;10.40;99.90
23748;DHT22;12054;53.662;10.126;2023-03-20T01:01:42;10.40;99.90
23748;DHT22;12054;53.662;10.126;2023-03-20T01:04:14;10.40;99.90
23748;DHT22;12054;53.662;10.126;2023-03-20T01:06:40;10.40;99.90
23748;DHT22;12054;53.662;10.126;2023-03-20T01:09:06;10.40;99.90
23748;DHT22;12054;53.662;10.126;2023-03-20T01:11:32;10.40;99.90
23748;DHT22;12054;53.662;10.126;2023-03-20T01:13:57;10.40;99.90
23748;DHT22;12054;53.662;10.126;2023-03-20T01:16:24;10.40;99.90
23748;DHT22;12054;53.662;10.126;2023-03-20T01:18:51;10.40;99.90
23748;DHT22;12054;53.662;10.126;2023-03-20T01:21:18;10.40;99.90
23748;DHT22;12054;53.662;10.126;2023-03-20T01:23:44;10.40;99.90
23748;DHT22;12054;53.662;10.126;2023-03-20T01:26:31;10.40;99.90
23748;DHT22;12054;53.662;10.126;2023-03-20T01:28:58;10.40;99.90
23748;DHT22;12054;53.662;10.126;2023-03-20T01:31:23;10.40;99.90
23748;DHT22;12054;53.662;10.126;2023-03-20T01:33:49;10.40;99.90
23748;DHT22;12054;53.662;10.126;2023-03-20T01:36:19;10.40;99.90
23748;DHT22;12054;53.662;10.126;2023-03-20T01:38:48;10.40;99.90
23748;DHT22;12054;53.662;10.126;2023-03-20T01:41:16;10.30;99.90
23748;DHT22;12054;53.662;10.126;2023-03-20T01:43:44;10.30;99.90
23748;DHT22;12054;53.662;10.126;2023-03-20T01:46:28;10.30;99.90
23748;DHT22;12054;53.662;10.126;2023-03-20T01:49:06;10.30;99.90
23748;DHT22;12054;53.662;10.126;2023-03-20T01:51:32;10.30;99.90
23748;DHT22;12054;53.662;10.126;2023-03-20T01:54:10;10.30;99.90
23748;DHT22;12054;53.662;10.126;2023-03-20T01:56:42;10.30;99.90
23748;DHT22;12054;53.662;10.126;2023-03-20T01:59:16;10.30;99.90
23748;DHT22;12054;53.662;10.126;2023-03-20T02:01:43;10.30;99.90
23748;DHT22;12054;53.662;10.126;2023-03-20T02:04:09;10.30;99.90
23748;DHT22;12054;53.662;10.126;2023-03-20T02:06:36;10.30;99.90
23748;DHT22;12054;53.662;10.126;2023-03-20T02:09:03;10.20;99.90
23748;DHT22;12054;53.662;10.126;2023-03-20T02:11:29;10.20;99.90
23748;DHT22;12054;53.662;10.126;2023-03-20T02:13:57;10.20;99.90
23748;DHT22;12054;53.662;10.126;2023-03-20T02:16:23;10.20;99.90
23748;DHT22;12054;53.662;10.126;2023-03-20T02:18:51;10.20;99.90
23748;DHT22;12054;53.662;10.126;2023-03-20T02:21:28;10.20;99.90
23748;DHT22;12054;53.662;10.126;2023-03-20T02:32:24;10.20;99.90
23748;DHT22;12054;53.662;10.126;2023-03-20T02:40:29;10.10;99.90
23748;DHT22;12054;53.662;10.126;2023-03-20T02:46:06;10.00;99.90
23748;DHT22;12054;53.662;10.126;2023-03-20T02:48:43;10.00;99.90
23748;DHT22;12054;53.662;10.126;2023-03-20T02:51:22;10.00;99.90
23748;DHT22;12054;53.662;10.126;2023-03-20T02:59:34;10.00;99.90
23748;DHT22;12054;53.662;10.126;2023-03-20T03:02:07;10.00;99.90
23748;DHT22;12054;53.662;10.126;2023-03-20T03:04:38;10.00;99.90
23748;DHT22;12054;53.662;10.126;2023-03-20T03:07:07;10.00;99.90
23748;DHT22;12054;53.662;10.126;2023-03-20T03:09:51;10.00;99.90
23748;DHT22;12054;53.662;10.126;2023-03-20T03:12:20;10.00;99.90
23748;DHT22;12054;53.662;10.126;2023-03-20T03:14:53;9.90;99.90
23748;DHT22;12054;53.662;10.126;2023-03-20T03:17:21;9.90;99.90
23748;DHT22;12054;53.662;10.126;2023-03-20T03:19:57;9.90;99.90
23748;DHT22;12054;53.662;10.126;2023-03-20T03:22:23;9.90;99.90
23748;DHT22;12054;53.662;10.126;2023-03-20T03:24:51;9.90;99.90
23748;DHT22;12054;53.662;10.126;2023-03-20T03:27:26;9.90;99.90
23748;DHT22;12054;53.662;10.126;2023-03-20T03:30:01;9.80;99.90
23748;DHT22;12054;53.662;10.126;2023-03-20T03:32:35;9.80;99.90
23748;DHT22;12054;53.662;10.126;2023-03-20T03:35:04;9.70;99.90
23748;DHT22;12054;53.662;10.126;2023-03-20T03:37:55;9.70;99.90
23748;DHT22;12054;53.662;10.126;2023-03-20T03:40:33;9.60;99.90
23748;DHT22;12054;53.662;10.126;2023-03-20T03:43:12;9.60;99.90
23748;DHT22;12054;53.662;10.126;2023-03-20T03:45:45;9.60;99.90
23748;DHT22;12054;53.662;10.126;2023-03-20T03:48:17;9.60;99.90
23748;DHT22;12054;53.662;10.126;2023-03-20T03:50:50;9.60;99.90
23748;DHT22;12054;53.662;10.126;2023-03-20T03:53:24;9.60;99.90
23748;DHT22;12054;53.662;10.126;2023-03-20T03:55:54;9.60;99.90
23748;DHT22;12054;53.662;10.126;2023-03-20T03:58:36;9.60;99.90
23748;DHT22;12054;53.662;10.126;2023-03-20T04:01:04;9.60;99.90
23748;DHT22;12054;53.662;10.126;2023-03-20T04:03:35;9.60;99.90
23748;DHT22;12054;53.662;10.126;2023-03-20T04:06:03;9.60;99.90
23748;DHT22;12054;53.662;10.126;2023-03-20T04:08:30;9.60;99.90
23748;DHT22;12054;53.662;10.126;2023-03-20T04:10:56;9.60;99.90
23748;DHT22;12054;53.662;10.126;2023-03-20T04:13:22;9.60;99.90
23748;DHT22;12054;53.662;10.126;2023-03-20T04:15:47;9.60;99.90
23748;DHT22;12054;53.662;10.126;2023-03-20T04:18:14;9.60;99.90
23748;DHT22;12054;53.662;10.126;2023-03-20T04:20:44;9.60;99.90
23748;DHT22;12054;53.662;10.126;2023-03-20T04:23:10;9.60;99.90
23748;DHT22;12054;53.662;10.126;2023-03-20T04:25:36;9.60;99.90
23748;DHT22;12054;53.662;10.126;2023-03-20T04:28:01;9.60;99.90
23748;DHT22;12054;53.662;10.126;2023-03-20T04:30:27;9.50;99.90
23748;DHT22;12054;53.662;10.126;2023-03-20T04:32:52;9.50;99.90
23748;DHT22;12054;53.662;10.126;2023-03-20T04:35:18;9.50;99.90
23748;DHT22;12054;53.662;10.126;2023-03-20T04:37:43;9.50;99.90
23748;DHT22;12054;53.662;10.126;2023-03-20T04:40:11;9.50;99.90
23748;DHT22;12054;53.662;10.126;2023-03-20T04:42:37;9.40;99.90
23748;DHT22;12054;53.662;10.126;2023-03-20T04:45:03;9.40;99.90
23748;DHT22;12054;53.662;10.126;2023-03-20T04:47:29;9.40;99.90
23748;DHT22;12054;53.662;10.126;2023-03-20T04:49:55;9.40;99.90
23748;DHT22;12054;53.662;10.126;2023-03-20T04:52:20;9.40;99.90
23748;DHT22;12054;53.662;10.126;2023-03-20T04:54:46;9.40;99.90
23748;DHT22;12054;53.662;10.126;2023-03-20T04:57:11;9.40;99.90
23748;DHT22;12054;53.662;10.126;2023-03-20T04:59:37;9.40;99.90
23748;DHT22;12054;53.662;10.126;2023-03-20T05:02:02;9.40;99.90
23748;DHT22;12054;53.662;10.126;2023-03-20T05:04:28;9.40;99.90
23748;DHT22;12054;53.662;10.126;2023-03-20T05:06:53;9.40;99.90
23748;DHT22;12054;53.662;10.126;2023-03-20T05:09:19;9.40;99.90
23748;DHT22;12054;53.662;10.126;2023-03-20T05:11:45;9.40;99.90
23748;DHT22;12054;53.662;10.126;2023-03-20T05:14:10;9.40;99.90
23748;DHT22;12054;53.662;10.126;2023-03-20T05:16:49;9.40;99.90
23748;DHT22;12054;53.662;10.126;2023-03-20T05:19:15;9.40;99.90
23748;DHT22;12054;53.662;10.126;2023-03-20T05:21:40;9.30;99.90
23748;DHT22;12054;53.662;10.126;2023-03-20T05:24:06;9.30;99.90
23748;DHT22;12054;53.662;10.126;2023-03-20T05:26:31;9.30;99.90
23748;DHT22;12054;53.662;10.126;2023-03-20T05:28:57;9.30;99.90
23748;DHT22;12054;53.662;10.126;2023-03-20T05:31:22;9.30;99.90
23748;DHT22;12054;53.662;10.126;2023-03-20T05:33:48;9.20;99.90
23748;DHT22;12054;53.662;10.126;2023-03-20T05:36:13;9.20;99.90
23748;DHT22;12054;53.662;10.126;2023-03-20T05:38:39;9.20;99.90
23748;DHT22;12054;53.662;10.126;2023-03-20T05:41:05;9.10;99.90
23748;DHT22;12054;53.662;10.126;2023-03-20T05:43:30;9.10;99.90
23748;DHT22;12054;53.662;10.126;2023-03-20T05:45:56;9.00;99.90
23748;DHT22;12054;53.662;10.126;2023-03-20T05:48:22;8.90;99.90
23748;DHT22;12054;53.662;10.126;2023-03-20T05:50:48;8.90;99.90
23748;DHT22;12054;53.662;10.126;2023-03-20T05:53:14;8.90;99.90
23748;DHT22;12054;53.662;10.126;2023-03-20T05:55:39;8.90;99.90
23748;DHT22;12054;53.662;10.126;2023-03-20T05:58:06;9.00;99.90
23748;DHT22;12054;53.662;10.126;2023-03-20T06:00:31;8.90;99.90
23748;DHT22;12054;53.662;10.126;2023-03-20T06:02:57;9.00;99.90
23748;DHT22;12054;53.662;10.126;2023-03-20T06:05:25;8.90;99.90
23748;DHT22;12054;53.662;10.126;2023-03-20T06:07:51;8.80;99.90
23748;DHT22;12054;53.662;10.126;2023-03-20T06:10:31;8.80;99.90
23748;DHT22;12054;53.662;10.126;2023-03-20T06:12:58;8.80;99.90
23748;DHT22;12054;53.662;10.126;2023-03-20T06:15:28;8.80;99.90
23748;DHT22;12054;53.662;10.126;2023-03-20T06:17:56;8.90;99.90
23748;DHT22;12054;53.662;10.126;2023-03-20T06:20:21;8.90;99.90
23748;DHT22;12054;53.662;10.126;2023-03-20T06:22:47;8.90;99.90
23748;DHT22;12054;53.662;10.126;2023-03-20T06:25:12;8.90;99.90
23748;DHT22;12054;53.662;10.126;2023-03-20T06:27:38;8.90;99.90
23748;DHT22;12054;53.662;10.126;2023-03-20T06:30:04;8.90;99.90
23748;DHT22;12054;53.662;10.126;2023-03-20T06:32:31;8.80;99.90
23748;DHT22;12054;53.662;10.126;2023-03-20T06:34:56;8.80;99.90
23748;DHT22;12054;53.662;10.126;2023-03-20T06:37:22;8.90;99.90
23748;DHT22;12054;53.662;10.126;2023-03-20T06:39:48;8.90;99.90
23748;DHT22;12054;53.662;10.126;2023-03-20T06:42:14;8.90;99.90
23748;DHT22;12054;53.662;10.126;2023-03-20T06:44:40;8.90;99.90
23748;DHT22;12054;53.662;10.126;2023-03-20T06:47:05;8.90;99.90
23748;DHT22;12054;53.662;10.126;2023-03-20T06:49:31;8.90;99.90
23748;DHT22;12054;53.662;10.126;2023-03-20T06:51:56;8.80;99.90
23748;DHT22;12054;53.662;10.126;2023-03-20T06:54:23;8.80;99.90
23748;DHT22;12054;53.662;10.126;2023-03-20T06:56:49;8.90;99.90
23748;DHT22;12054;53.662;10.126;2023-03-20T06:59:14;8.80;99.90
23748;DHT22;12054;53.662;10.126;2023-03-20T07:01:40;8.80;99.90
23748;DHT22;12054;53.662;10.126;2023-03-20T07:04:06;8.80;99.90
23748;DHT22;12054;53.662;10.126;2023-03-20T07:06:31;8.80;99.90
23748;DHT22;12054;53.662;10.126;2023-03-20T07:08:58;8.80;99.90
23748;DHT22;12054;53.662;10.126;2023-03-20T07:11:23;8.90;99.90
23748;DHT22;12054;53.662;10.126;2023-03-20T07:13:49;8.80;99.90
23748;DHT22;12054;53.662;10.126;2023-03-20T07:16:14;8.90;99.90
23748;DHT22;12054;53.662;10.126;2023-03-20T07:18:40;8.90;99.90
23748;DHT22;12054;53.662;10.126;2023-03-20T07:21:06;8.90;99.90
23748;DHT22;12054;53.662;10.126;2023-03-20T07:23:32;8.90;99.90
23748;DHT22;12054;53.662;10.126;2023-03-20T07:26:02;8.90;99.90
23748;DHT22;12054;53.662;10.126;2023-03-20T07:28:28;8.90;99.90
23748;DHT22;12054;53.662;10.126;2023-03-20T07:30:53;8.90;99.90
23748;DHT22;12054;53.662;10.126;2023-03-20T07:33:19;8.90;99.90
23748;DHT22;12054;53.662;10.126;2023-03-20T07:35:46;8.90;99.90
23748;DHT22;12054;53.662;10.126;2023-03-20T07:38:15;8.90;99.90
23748;DHT22;12054;53.662;10.126;2023-03-20T07:40:41;9.00;99.90
23748;DHT22;12054;53.662;10.126;2023-03-20T07:43:06;8.90;99.90
23748;DHT22;12054;53.662;10.126;2023-03-20T07:45:32;8.90;99.90
23748;DHT22;12054;53.662;10.126;2023-03-20T07:47:57;8.90;99.90
23748;DHT22;12054;53.662;10.126;2023-03-20T07:50:23;8.90;99.90
23748;DHT22;12054;53.662;10.126;2023-03-20T07:52:49;8.90;99.90
23748;DHT22;12054;53.662;10.126;2023-03-20T07:55:16;8.90;99.90
23748;DHT22;12054;53.662;10.126;2023-03-20T07:57:42;8.90;99.90
23748;DHT22;12054;53.662;10.126;2023-03-20T08:00:08;8.90;99.90
23748;DHT22;12054;53.662;10.126;2023-03-20T08:02:34;8.90;99.90
23748;DHT22;12054;53.662;10.126;2023-03-20T08:04:59;8.90;99.90
23748;DHT22;12054;53.662;10.126;2023-03-20T08:07:25;8.90;99.90
23748;DHT22;12054;53.662;10.126;2023-03-20T08:09:50;8.90;99.90
23748;DHT22;12054;53.662;10.126;2023-03-20T08:12:17;8.90;99.90
23748;DHT22;12054;53.662;10.126;2023-03-20T08:14:42;8.90;99.90
23748;DHT22;12054;53.662;10.126;2023-03-20T08:17:08;8.90;99.90
23748;DHT22;12054;53.662;10.126;2023-03-20T08:19:34;9.00;99.90
23748;DHT22;12054;53.662;10.126;2023-03-20T08:22:00;9.00;99.90
23748;DHT22;12054;53.662;10.126;2023-03-20T08:24:26;9.00;99.90
23748;DHT22;12054;53.662;10.126;2023-03-20T08:26:52;9.00;99.90
23748;DHT22;12054;53.662;10.126;2023-03-20T08:29:17;9.00;99.90
23748;DHT22;12054;53.662;10.126;2023-03-20T08:31:44;9.00;99.90
23748;DHT22;12054;53.662;10.126;2023-03-20T08:34:09;9.00;99.90
23748;DHT22;12054;53.662;10.126;2023-03-20T08:36:35;9.00;99.90
23748;DHT22;12054;53.662;10.126;2023-03-20T08:39:01;9.00;99.90
23748;DHT22;12054;53.662;10.126;2023-03-20T08:41:27;9.00;99.90
23748;DHT22;12054;53.662;10.126;2023-03-20T08:43:53;9.00;99.90
23748;DHT22;12054;53.662;10.126;2023-03-20T08:46:18;9.10;99.90
23748;DHT22;12054;53.662;10.126;2023-03-20T08:48:44;9.00;99.90
23748;DHT22;12054;53.662;10.126;2023-03-20T08:51:09;9.10;99.90
23748;DHT22;12054;53.662;10.126;2023-03-20T08:53:35;9.10;99.90
23748;DHT22;12054;53.662;10.126;2023-03-20T08:56:01;9.10;99.90
23748;DHT22;12054;53.662;10.126;2023-03-20T08:58:28;9.10;99.90
23748;DHT22;12054;53.662;10.126;2023-03-20T09:00:54;9.10;99.90
23748;DHT22;12054;53.662;10.126;2023-03-20T09:03:20;9.10;99.90
23748;DHT22;12054;53.662;10.126;2023-03-20T09:05:47;9.10;99.90
23748;DHT22;12054;53.662;10.126;2023-03-20T09:08:13;9.10;99.90
23748;DHT22;12054;53.662;10.126;2023-03-20T09:10:39;9.20;99.90
23748;DHT22;12054;53.662;10.126;2023-03-20T09:13:06;9.20;99.90
23748;DHT22;12054;53.662;10.126;2023-03-20T09:15:31;9.20;99.90
23748;DHT22;12054;53.662;10.126;2023-03-20T09:17:58;9.20;99.90
23748;DHT22;12054;53.662;10.126;2023-03-20T09:20:24;9.20;99.90
23748;DHT22;12054;53.662;10.126;2023-03-20T09:22:49;9.20;99.90
23748;DHT22;12054;53.662;10.126;2023-03-20T09:25:15;9.20;99.90
23748;DHT22;12054;53.662;10.126;2023-03-20T09:27:40;9.20;99.90
23748;DHT22;12054;53.662;10.126;2023-03-20T09:30:07;9.20;99.90
23748;DHT22;12054;53.662;10.126;2023-03-20T09:32:33;9.30;99.90
23748;DHT22;12054;53.662;10.126;2023-03-20T09:34:59;9.30;99.90
23748;DHT22;12054;53.662;10.126;2023-03-20T09:37:25;9.30;99.90
23748;DHT22;12054;53.662;10.126;2023-03-20T09:39:50;9.30;99.90
23748;DHT22;12054;53.662;10.126;2023-03-20T09:45:00;9.40;99.90
23748;DHT22;12054;53.662;10.126;2023-03-20T09:47:50;9.40;99.90
23748;DHT22;12054;53.662;10.126;2023-03-20T09:50:28;9.30;99.90
23748;DHT22;12054;53.662;10.126;2023-03-20T09:53:03;9.40;99.90
23748;DHT22;12054;53.662;10.126;2023-03-20T09:55:36;9.40;99.90
23748;DHT22;12054;53.662;10.126;2023-03-20T09:58:15;9.40;99.90
23748;DHT22;12054;53.662;10.126;2023-03-20T10:00:44;9.40;99.90
23748;DHT22;12054;53.662;10.126;2023-03-20T10:03:46;9.50;99.90
23748;DHT22;12054;53.662;10.126;2023-03-20T10:06:14;9.50;99.90
23748;DHT22;12054;53.662;10.126;2023-03-20T10:08:41;9.50;99.90
23748;DHT22;12054;53.662;10.126;2023-03-20T10:11:21;9.50;99.90
23748;DHT22;12054;53.662;10.126;2023-03-20T10:19:29;9.50;99.90
23748;DHT22;12054;53.662;10.126;2023-03-20T10:25:25;9.60;99.90
23748;DHT22;12054;53.662;10.126;2023-03-20T10:27:55;9.60;99.90
23748;DHT22;12054;53.662;10.126;2023-03-20T10:31:00;9.60;99.90
23748;DHT22;12054;53.662;10.126;2023-03-20T10:36:24;9.70;99.90
23748;DHT22;12054;53.662;10.126;2023-03-20T10:39:05;9.70;99.90
23748;DHT22;12054;53.662;10.126;2023-03-20T10:41:36;9.70;99.90
23748;DHT22;12054;53.662;10.126;2023-03-20T10:44:04;9.70;99.90
23748;DHT22;12054;53.662;10.126;2023-03-20T10:46:40;9.70;99.90
23748;DHT22;12054;53.662;10.126;2023-03-20T10:49:20;9.70;99.90
23748;DHT22;12054;53.662;10.126;2023-03-20T10:52:00;9.70;99.90
23748;DHT22;12054;53.662;10.126;2023-03-20T10:56:55;9.60;99.90
23748;DHT22;12054;53.662;10.126;2023-03-20T11:01:52;9.70;99.90
23748;DHT22;12054;53.662;10.126;2023-03-20T11:04:17;9.70;99.90
23748;DHT22;12054;53.662;10.126;2023-03-20T11:07:18;9.70;99.90
23748;DHT22;12054;53.662;10.126;2023-03-20T11:12:45;9.70;99.90
23748;DHT22;12054;53.662;10.126;2023-03-20T11:15:32;9.70;99.90
23748;DHT22;12054;53.662;10.126;2023-03-20T11:18:06;9.70;99.90
23748;DHT22;12054;53.662;10.126;2023-03-20T11:20:55;9.80;99.90
23748;DHT22;12054;53.662;10.126;2023-03-20T11:23:26;9.70;99.90
23748;DHT22;12054;53.662;10.126;2023-03-20T11:28:39;9.80;99.90
23748;DHT22;12054;53.662;10.126;2023-03-20T11:33:39;9.90;99.90
23748;DHT22;12054;53.662;10.126;2023-03-20T11:36:20;9.90;99.90
23748;DHT22;12054;53.662;10.126;2023-03-20T11:38:46;9.90;99.90
23748;DHT22;12054;53.662;10.126;2023-03-20T11:41:32;10.00;99.90
23748;DHT22;12054;53.662;10.126;2023-03-20T11:43:58;10.00;99.90
23748;DHT22;12054;53.662;10.126;2023-03-20T11:46:24;10.00;99.90
23748;DHT22;12054;53.662;10.126;2023-03-20T11:49:18;10.00;99.90
23748;DHT22;12054;53.662;10.126;2023-03-20T11:51:45;10.00;99.90
23748;DHT22;12054;53.662;10.126;2023-03-20T11:54:16;10.00;99.90
23748;DHT22;12054;53.662;10.126;2023-03-20T11:59:19;10.00;99.90
23748;DHT22;12054;53.662;10.126;2023-03-20T12:01:47;10.00;99.90
23748;DHT22;12054;53.662;10.126;2023-03-20T12:04:17;10.00;99.90
23748;DHT22;12054;53.662;10.126;2023-03-20T12:11:58;10.00;99.90
23748;DHT22;12054;53.662;10.126;2023-03-20T12:14:51;10.00;99.90
23748;DHT22;12054;53.662;10.126;2023-03-20T12:17:29;10.10;99.90
23748;DHT22;12054;53.662;10.126;2023-03-20T12:20:05;10.00;99.90
23748;DHT22;12054;53.662;10.126;2023-03-20T12:22:42;10.10;99.90
23748;DHT22;12054;53.662;10.126;2023-03-20T12:25:29;10.10;99.90
23748;DHT22;12054;53.662;10.126;2023-03-20T12:28:11;10.10;99.90
23748;DHT22;12054;53.662;10.126;2023-03-20T12:33:39;10.20;99.90
23748;DHT22;12054;53.662;10.126;2023-03-20T12:36:13;10.20;99.90
23748;DHT22;12054;53.662;10.126;2023-03-20T12:38:40;10.20;99.90
23748;DHT22;12054;53.662;10.126;2023-03-20T12:41:25;10.20;99.90
23748;DHT22;12054;53.662;10.126;2023-03-20T12:44:13;10.20;99.90
23748;DHT22;12054;53.662;10.126;2023-03-20T12:51:57;10.30;99.90
23748;DHT22;12054;53.662;10.126;2023-03-20T13:06:35;10.50;99.90
23748;DHT22;12054;53.662;10.126;2023-03-20T13:17:20;10.80;99.90
23748;DHT22;12054;53.662;10.126;2023-03-20T13:25:39;10.90;99.90
23748;DHT22;12054;53.662;10.126;2023-03-20T13:28:20;10.90;99.90
23748;DHT22;12054;53.662;10.126;2023-03-20T13:38:53;10.90;99.90
23748;DHT22;12054;53.662;10.126;2023-03-20T13:41:24;10.90;99.90
23748;DHT22;12054;53.662;10.126;2023-03-20T13:43:55;10.90;99.90
23748;DHT22;12054;53.662;10.126;2023-03-20T13:46:29;10.90;99.90
23748;DHT22;12054;53.662;10.126;2023-03-20T13:49:04;10.90;99.90
23748;DHT22;12054;53.662;10.126;2023-03-20T13:51:38;10.90;99.90
23748;DHT22;12054;53.662;10.126;2023-03-20T13:57:47;10.90;99.90
23748;DHT22;12054;53.662;10.126;2023-03-20T14:00:37;10.90;99.90
23748;DHT22;12054;53.662;10.126;2023-03-20T14:03:14;10.90;99.90
23748;DHT22;12054;53.662;10.126;2023-03-20T14:05:50;10.90;99.90
23748;DHT22;12054;53.662;10.126;2023-03-20T14:08:31;10.90;99.90
23748;DHT22;12054;53.662;10.126;2023-03-20T14:11:13;10.90;99.90
23748;DHT22;12054;53.662;10.126;2023-03-20T14:13:43;10.90;99.90
23748;DHT22;12054;53.662;10.126;2023-03-20T14:16:13;10.90;99.90
23748;DHT22;12054;53.662;10.126;2023-03-20T14:18:40;10.90;99.90
23748;DHT22;12054;53.662;10.126;2023-03-20T14:21:17;10.90;99.90
23748;DHT22;12054;53.662;10.126;2023-03-20T14:23:47;10.80;99.90
23748;DHT22;12054;53.662;10.126;2023-03-20T14:26:29;10.80;99.90
23748;DHT22;12054;53.662;10.126;2023-03-20T14:29:18;10.80;99.90
23748;DHT22;12054;53.662;10.126;2023-03-20T14:31:48;10.80;99.90
23748;DHT22;12054;53.662;10.126;2023-03-20T14:34:20;10.80;99.90
23748;DHT22;12054;53.662;10.126;2023-03-20T14:37:04;10.80;99.90
23748;DHT22;12054;53.662;10.126;2023-03-20T14:45:23;10.80;99.90
23748;DHT22;12054;53.662;10.126;2023-03-20T14:48:24;10.80;99.90
23748;DHT22;12054;53.662;10.126;2023-03-20T14:51:00;10.80;99.90
23748;DHT22;12054;53.662;10.126;2023-03-20T14:53:31;10.80;99.90
23748;DHT22;12054;53.662;10.126;2023-03-20T14:56:06;10.90;99.90
23748;DHT22;12054;53.662;10.126;2023-03-20T15:01:07;10.80;99.90
23748;DHT22;12054;53.662;10.126;2023-03-20T15:03:33;10.80;99.90
23748;DHT22;12054;53.662;10.126;2023-03-20T15:06:04;10.80;99.90
23748;DHT22;12054;53.662;10.126;2023-03-20T15:08:33;10.80;99.90
23748;DHT22;12054;53.662;10.126;2023-03-20T15:11:05;10.80;99.90
23748;DHT22;12054;53.662;10.126;2023-03-20T15:13:33;10.80;99.90
23748;DHT22;12054;53.662;10.126;2023-03-20T15:16:04;10.80;99.90
23748;DHT22;12054;53.662;10.126;2023-03-20T15:18:39;10.80;99.90
23748;DHT22;12054;53.662;10.126;2023-03-20T15:23:57;10.80;99.90
23748;DHT22;12054;53.662;10.126;2023-03-20T15:26:23;10.80;99.90
23748;DHT22;12054;53.662;10.126;2023-03-20T15:28:58;10.70;99.90
23748;DHT22;12054;53.662;10.126;2023-03-20T15:31:30;10.70;99.90
23748;DHT22;12054;53.662;10.126;2023-03-20T15:33:58;10.70;99.90
23748;DHT22;12054;53.662;10.126;2023-03-20T15:36:28;10.80;99.90
23748;DHT22;12054;53.662;10.126;2023-03-20T15:39:05;10.70;99.90
23748;DHT22;12054;53.662;10.126;2023-03-20T15:41:36;10.70;99.90
23748;DHT22;12054;53.662;10.126;2023-03-20T15:44:17;10.70;99.90
23748;DHT22;12054;53.662;10.126;2023-03-20T15:46:51;10.80;99.90
23748;DHT22;12054;53.662;10.126;2023-03-20T15:49:18;10.80;99.90
23748;DHT22;12054;53.662;10.126;2023-03-20T15:51:45;10.70;99.90
23748;DHT22;12054;53.662;10.126;2023-03-20T15:54:13;10.70;99.90
23748;DHT22;12054;53.662;10.126;2023-03-20T15:56:41;10.70;99.90
23748;DHT22;12054;53.662;10.126;2023-03-20T15:59:13;10.70;99.90
23748;DHT22;12054;53.662;10.126;2023-03-20T16:01:39;10.70;99.90
23748;DHT22;12054;53.662;10.126;2023-03-20T16:04:05;10.70;99.90
23748;DHT22;12054;53.662;10.126;2023-03-20T16:06:31;10.80;99.90
23748;DHT22;12054;53.662;10.126;2023-03-20T16:09:04;10.70;99.90
23748;DHT22;12054;53.662;10.126;2023-03-20T16:11:41;10.70;99.90
23748;DHT22;12054;53.662;10.126;2023-03-20T16:14:20;10.70;99.90
23748;DHT22;12054;53.662;10.126;2023-03-20T16:16:49;10.70;99.90
23748;DHT22;12054;53.662;10.126;2023-03-20T16:19:15;10.70;99.90
23748;DHT22;12054;53.662;10.126;2023-03-20T16:21:45;10.70;99.90
23748;DHT22;12054;53.662;10.126;2023-03-20T16:24:19;10.60;99.90
23748;DHT22;12054;53.662;10.126;2023-03-20T16:26:49;10.60;99.90
23748;DHT22;12054;53.662;10.126;2023-03-20T16:29:15;10.60;99.90
23748;DHT22;12054;53.662;10.126;2023-03-20T16:32:00;10.60;99.90
23748;DHT22;12054;53.662;10.126;2023-03-20T16:34:32;10.50;99.90
23748;DHT22;12054;53.662;10.126;2023-03-20T16:37:00;10.60;99.90
23748;DHT22;12054;53.662;10.126;2023-03-20T16:39:28;10.60;99.90
23748;DHT22;12054;53.662;10.126;2023-03-20T16:42:21;10.60;99.90
23748;DHT22;12054;53.662;10.126;2023-03-20T16:44:53;10.50;99.90
23748;DHT22;12054;53.662;10.126;2023-03-20T16:47:32;10.50;99.90
23748;DHT22;12054;53.662;10.126;2023-03-20T16:52:45;10.50;99.90
23748;DHT22;12054;53.662;10.126;2023-03-20T16:55:20;10.50;99.90
23748;DHT22;12054;53.662;10.126;2023-03-20T16:57:49;10.50;99.90
23748;DHT22;12054;53.662;10.126;2023-03-20T17:00:30;10.50;99.90
23748;DHT22;12054;53.662;10.126;2023-03-20T17:03:05;10.50;99.90
23748;DHT22;12054;53.662;10.126;2023-03-20T17:05:55;10.50;99.90
23748;DHT22;12054;53.662;10.126;2023-03-20T17:08:26;10.50;99.90
23748;DHT22;12054;53.662;10.126;2023-03-20T17:10:56;10.50;99.90
23748;DHT22;12054;53.662;10.126;2023-03-20T17:13:22;10.50;99.90
23748;DHT22;12054;53.662;10.126;2023-03-20T17:15:48;10.50;99.90
23748;DHT22;12054;53.662;10.126;2023-03-20T17:18:14;10.50;99.90
23748;DHT22;12054;53.662;10.126;2023-03-20T17:20:40;10.50;99.90
23748;DHT22;12054;53.662;10.126;2023-03-20T17:23:18;10.50;99.90
23748;DHT22;12054;53.662;10.126;2023-03-20T17:25:44;10.50;99.90
23748;DHT22;12054;53.662;10.126;2023-03-20T17:28:22;10.50;99.90
23748;DHT22;12054;53.662;10.126;2023-03-20T17:30:49;10.50;99.90
23748;DHT22;12054;53.662;10.126;2023-03-20T17:33:16;10.50;99.90
23748;DHT22;12054;53.662;10.126;2023-03-20T17:35:45;10.50;99.90
23748;DHT22;12054;53.662;10.126;2023-03-20T17:38:20;10.50;99.90
23748;DHT22;12054;53.662;10.126;2023-03-20T17:40:46;10.50;99.90
23748;DHT22;12054;53.662;10.126;2023-03-20T17:43:13;10.50;99.90